sensor_id;sensor_type;location;lat;lon;timestamp;pressure;altitude;pressure_sealevel;temperature;humidity
74045;BME280;62389;51.412;5.436;2024-02-26T00:01:23;99684.50;;;6.36;99.19
74045;BME280;62389;51.412;5.436;2024-02-26T00:03:48;99680.22;;;6.35;99.76
74045;BME280;62389;51.412;5.436;2024-02-26T00:06:14;99683.66;;;6.35;99.32
74045;BME280;62389;51.412;5.436;2024-02-26T00:08:39;99682.81;;;6.35;99.93
74045;BME280;62389;51.412;5.436;2024-02-26T00:11:05;99688.94;;;6.34;99.28
74045;BME280;62389;51.412;5.436;2024-02-26T00:13:30;99686.31;;;6.34;99.82
74045;BME280;62389;51.412;5.436;2024-02-26T00:15:55;99675.09;;;6.33;99.81
74045;BME280;62389;51.412;5.436;2024-02-26T00:18:21;99680.34;;;6.32;99.40
74045;BME280;62389;51.412;5.436;2024-02-26T00:20:46;99679.56;;;6.30;99.66
74045;BME280;62389;51.412;5.436;2024-02-26T00:23:15;99681.41;;;6.28;99.94
74045;BME280;62389;51.412;5.436;2024-02-26T00:25:40;99678.88;;;6.26;100.00
74045;BME280;62389;51.412;5.436;2024-02-26T00:28:07;99676.16;;;6.29;100.00
74045;BME280;62389;51.412;5.436;2024-02-26T00:30:33;99675.44;;;6.26;100.00
74045;BME280;62389;51.412;5.436;2024-02-26T00:32:58;99681.53;;;6.25;100.00
74045;BME280;62389;51.412;5.436;2024-02-26T00:35:23;99679.84;;;6.23;100.00
74045;BME280;62389;51.412;5.436;2024-02-26T00:37:49;99674.72;;;6.22;100.00
74045;BME280;62389;51.412;5.436;2024-02-26T00:40:14;99666.09;;;6.21;100.00
74045;BME280;62389;51.412;5.436;2024-02-26T00:42:39;99661.88;;;6.19;100.00
74045;BME280;62389;51.412;5.436;2024-02-26T00:45:10;99659.34;;;6.17;100.00
74045;BME280;62389;51.412;5.436;2024-02-26T00:47:36;99666.44;;;6.14;100.00
74045;BME280;62389;51.412;5.436;2024-02-26T00:50:01;99655.22;;;6.13;100.00
74045;BME280;62389;51.412;5.436;2024-02-26T00:52:27;99653.50;;;6.12;100.00
74045;BME280;62389;51.412;5.436;2024-02-26T00:54:52;99654.41;;;6.11;100.00
74045;BME280;62389;51.412;5.436;2024-02-26T00:57:18;99663.13;;;6.10;100.00
74045;BME280;62389;51.412;5.436;2024-02-26T00:59:43;99659.75;;;6.08;100.00
74045;BME280;62389;51.412;5.436;2024-02-26T01:02:08;99657.22;;;6.07;100.00
74045;BME280;62389;51.412;5.436;2024-02-26T01:04:34;99662.41;;;6.07;100.00
74045;BME280;62389;51.412;5.436;2024-02-26T01:06:59;99663.31;;;6.06;100.00
74045;BME280;62389;51.412;5.436;2024-02-26T01:09:24;99665.06;;;6.05;100.00
74045;BME280;62389;51.412;5.436;2024-02-26T01:11:50;99670.34;;;6.04;100.00
74045;BME280;62389;51.412;5.436;2024-02-26T01:14:15;99678.19;;;6.02;100.00
74045;BME280;62389;51.412;5.436;2024-02-26T01:16:41;99670.38;;;6.02;100.00
74045;BME280;62389;51.412;5.436;2024-02-26T01:19:06;99669.63;;;6.00;100.00
74045;BME280;62389;51.412;5.436;2024-02-26T01:21:31;99670.53;;;5.99;100.00
74045;BME280;62389;51.412;5.436;2024-02-26T01:23:57;99674.06;;;5.98;100.00
74045;BME280;62389;51.412;5.436;2024-02-26T01:26:22;99683.66;;;5.96;100.00
74045;BME280;62389;51.412;5.436;2024-02-26T01:28:48;99675.09;;;5.94;100.00
74045;BME280;62389;51.412;5.436;2024-02-26T01:31:13;99681.19;;;5.93;100.00
74045;BME280;62389;51.412;5.436;2024-02-26T01:33:39;99688.16;;;5.92;100.00
74045;BME280;62389;51.412;5.436;2024-02-26T01:36:04;99689.91;;;5.90;100.00
74045;BME280;62389;51.412;5.436;2024-02-26T01:38:30;99688.22;;;5.89;100.00
74045;BME280;62389;51.412;5.436;2024-02-26T01:40:55;99693.50;;;5.88;100.00
74045;BME280;62389;51.412;5.436;2024-02-26T01:43:22;99693.69;;;5.83;100.00
74045;BME280;62389;51.412;5.436;2024-02-26T01:45:47;99690.25;;;5.83;100.00
74045;BME280;62389;51.412;5.436;2024-02-26T01:48:13;99693.72;;;5.82;100.00
74045;BME280;62389;51.412;5.436;2024-02-26T01:50:39;99699.91;;;5.79;100.00
74045;BME280;62389;51.412;5.436;2024-02-26T01:53:05;99687.88;;;5.77;100.00
74045;BME280;62389;51.412;5.436;2024-02-26T01:55:32;99699.19;;;5.76;100.00
74045;BME280;62389;51.412;5.436;2024-02-26T01:57:58;99696.59;;;5.76;100.00
74045;BME280;62389;51.412;5.436;2024-02-26T02:00:24;99698.34;;;5.75;100.00
74045;BME280;62389;51.412;5.436;2024-02-26T02:02:50;99704.53;;;5.72;100.00
74045;BME280;62389;51.412;5.436;2024-02-26T02:05:16;99701.13;;;5.70;100.00
74045;BME280;62389;51.412;5.436;2024-02-26T02:07:45;99692.59;;;5.68;100.00
74045;BME280;62389;51.412;5.436;2024-02-26T02:10:11;99696.97;;;5.66;100.00
74045;BME280;62389;51.412;5.436;2024-02-26T02:12:37;99695.38;;;5.64;100.00
74045;BME280;62389;51.412;5.436;2024-02-26T02:15:05;99688.53;;;5.61;100.00
74045;BME280;62389;51.412;5.436;2024-02-26T02:17:31;99689.53;;;5.59;100.00
74045;BME280;62389;51.412;5.436;2024-02-26T02:19:56;99687.88;;;5.56;100.00
74045;BME280;62389;51.412;5.436;2024-02-26T02:22:22;99685.44;;;5.53;100.00
74045;BME280;62389;51.412;5.436;2024-02-26T02:24:49;99695.84;;;5.52;100.00
74045;BME280;62389;51.412;5.436;2024-02-26T02:27:14;99688.16;;;5.50;100.00
74045;BME280;62389;51.412;5.436;2024-02-26T02:29:40;99689.97;;;5.48;100.00
74045;BME280;62389;51.412;5.436;2024-02-26T02:32:06;99678.88;;;5.44;100.00
74045;BME280;62389;51.412;5.436;2024-02-26T02:34:32;99685.88;;;5.42;100.00
74045;BME280;62389;51.412;5.436;2024-02-26T02:36:58;99697.22;;;5.40;100.00
74045;BME280;62389;51.412;5.436;2024-02-26T02:39:23;99694.72;;;5.37;100.00
74045;BME280;62389;51.412;5.436;2024-02-26T02:41:48;99686.09;;;5.36;100.00
74045;BME280;62389;51.412;5.436;2024-02-26T02:44:14;99680.91;;;5.36;100.00
74045;BME280;62389;51.412;5.436;2024-02-26T02:46:39;99687.94;;;5.34;100.00
74045;BME280;62389;51.412;5.436;2024-02-26T02:49:11;99698.31;;;5.34;100.00
74045;BME280;62389;51.412;5.436;2024-02-26T02:51:37;99683.66;;;5.33;100.00
74045;BME280;62389;51.412;5.436;2024-02-26T02:54:02;99688.88;;;5.32;100.00
74045;BME280;62389;51.412;5.436;2024-02-26T02:56:28;99690.72;;;5.30;100.00
74045;BME280;62389;51.412;5.436;2024-02-26T02:58:53;99686.44;;;5.29;100.00
74045;BME280;62389;51.412;5.436;2024-02-26T03:01:18;99689.03;;;5.29;100.00
74045;BME280;62389;51.412;5.436;2024-02-26T03:03:44;99686.50;;;5.27;100.00
74045;BME280;62389;51.412;5.436;2024-02-26T03:06:09;99690.06;;;5.25;100.00
74045;BME280;62389;51.412;5.436;2024-02-26T03:08:35;99698.81;;;5.22;100.00
74045;BME280;62389;51.412;5.436;2024-02-26T03:11:03;99691.03;;;5.22;100.00
74045;BME280;62389;51.412;5.436;2024-02-26T03:13:29;99698.91;;;5.19;100.00
74045;BME280;62389;51.412;5.436;2024-02-26T03:15:54;99695.53;;;5.17;100.00
74045;BME280;62389;51.412;5.436;2024-02-26T03:18:20;99689.56;;;5.15;100.00
74045;BME280;62389;51.412;5.436;2024-02-26T03:20:45;99701.69;;;5.14;100.00
74045;BME280;62389;51.412;5.436;2024-02-26T03:23:11;99693.00;;;5.15;100.00
74045;BME280;62389;51.412;5.436;2024-02-26T03:25:38;99697.28;;;5.16;100.00
74045;BME280;62389;51.412;5.436;2024-02-26T03:28:04;99702.53;;;5.15;100.00
74045;BME280;62389;51.412;5.436;2024-02-26T03:30:29;99710.38;;;5.13;100.00
74045;BME280;62389;51.412;5.436;2024-02-26T03:32:54;99706.03;;;5.14;100.00
74045;BME280;62389;51.412;5.436;2024-02-26T03:35:20;99706.88;;;5.14;100.00
74045;BME280;62389;51.412;5.436;2024-02-26T03:37:46;99697.44;;;5.12;100.00
74045;BME280;62389;51.412;5.436;2024-02-26T03:40:13;99702.72;;;5.10;100.00
74045;BME280;62389;51.412;5.436;2024-02-26T03:42:39;99699.19;;;5.11;100.00
74045;BME280;62389;51.412;5.436;2024-02-26T03:45:05;99707.88;;;5.10;100.00
74045;BME280;62389;51.412;5.436;2024-02-26T03:47:31;99707.06;;;5.10;100.00
74045;BME280;62389;51.412;5.436;2024-02-26T03:49:57;99701.03;;;5.09;100.00
74045;BME280;62389;51.412;5.436;2024-02-26T03:52:24;99699.28;;;5.10;100.00
74045;BME280;62389;51.412;5.436;2024-02-26T03:54:49;99711.31;;;5.11;100.00
74045;BME280;62389;51.412;5.436;2024-02-26T03:57:15;99706.13;;;5.11;100.00
74045;BME280;62389;51.412;5.436;2024-02-26T03:59:40;99711.38;;;5.09;100.00
74045;BME280;62389;51.412;5.436;2024-02-26T04:02:05;99699.34;;;5.08;100.00
74045;BME280;62389;51.412;5.436;2024-02-26T04:04:34;99708.88;;;5.08;100.00
74045;BME280;62389;51.412;5.436;2024-02-26T04:07:00;99714.09;;;5.06;100.00
74045;BME280;62389;51.412;5.436;2024-02-26T04:09:25;99707.22;;;5.05;100.00
74045;BME280;62389;51.412;5.436;2024-02-26T04:11:50;99717.66;;;5.04;100.00
74045;BME280;62389;51.412;5.436;2024-02-26T04:14:16;99716.00;;;5.01;100.00
74045;BME280;62389;51.412;5.436;2024-02-26T04:16:41;99713.50;;;5.00;100.00
74045;BME280;62389;51.412;5.436;2024-02-26T04:19:07;99723.09;;;4.98;100.00
74045;BME280;62389;51.412;5.436;2024-02-26T04:21:32;99719.75;;;4.94;100.00
74045;BME280;62389;51.412;5.436;2024-02-26T04:23:58;99721.59;;;4.92;100.00
74045;BME280;62389;51.412;5.436;2024-02-26T04:26:26;99714.69;;;4.91;100.00
74045;BME280;62389;51.412;5.436;2024-02-26T04:28:52;99725.88;;;4.91;100.00
74045;BME280;62389;51.412;5.436;2024-02-26T04:31:18;99728.56;;;4.90;100.00
74045;BME280;62389;51.412;5.436;2024-02-26T04:33:44;99732.97;;;4.88;100.00
74045;BME280;62389;51.412;5.436;2024-02-26T04:36:15;99732.16;;;4.86;100.00
74045;BME280;62389;51.412;5.436;2024-02-26T04:38:42;99735.59;;;4.86;100.00
74045;BME280;62389;51.412;5.436;2024-02-26T04:41:08;99733.84;;;4.87;100.00
74045;BME280;62389;51.412;5.436;2024-02-26T04:43:33;99733.84;;;4.87;100.00
74045;BME280;62389;51.412;5.436;2024-02-26T04:45:58;99737.34;;;4.86;100.00
74045;BME280;62389;51.412;5.436;2024-02-26T04:48:24;99742.66;;;4.83;100.00
74045;BME280;62389;51.412;5.436;2024-02-26T04:50:49;99747.00;;;4.82;100.00
74045;BME280;62389;51.412;5.436;2024-02-26T04:53:15;99740.06;;;4.83;100.00
74045;BME280;62389;51.412;5.436;2024-02-26T04:55:40;99738.34;;;4.82;100.00
74045;BME280;62389;51.412;5.436;2024-02-26T04:58:05;99740.94;;;4.82;100.00
74045;BME280;62389;51.412;5.436;2024-02-26T05:00:31;99731.56;;;4.79;100.00
74045;BME280;62389;51.412;5.436;2024-02-26T05:02:56;99738.56;;;4.77;100.00
74045;BME280;62389;51.412;5.436;2024-02-26T05:05:21;99735.16;;;4.75;100.00
74045;BME280;62389;51.412;5.436;2024-02-26T05:07:47;99734.38;;;4.73;100.00
74045;BME280;62389;51.412;5.436;2024-02-26T05:10:12;99734.41;;;4.72;100.00
74045;BME280;62389;51.412;5.436;2024-02-26T05:12:37;99748.34;;;4.69;100.00
74045;BME280;62389;51.412;5.436;2024-02-26T05:15:04;99746.66;;;4.68;100.00
74045;BME280;62389;51.412;5.436;2024-02-26T05:17:29;99754.34;;;4.70;100.00
74045;BME280;62389;51.412;5.436;2024-02-26T05:19:55;99750.09;;;4.68;100.00
74045;BME280;62389;51.412;5.436;2024-02-26T05:22:20;99753.63;;;4.66;100.00
74045;BME280;62389;51.412;5.436;2024-02-26T05:24:45;99752.78;;;4.65;100.00
74045;BME280;62389;51.412;5.436;2024-02-26T05:27:11;99752.84;;;4.64;100.00
74045;BME280;62389;51.412;5.436;2024-02-26T05:29:37;99745.97;;;4.63;100.00
74045;BME280;62389;51.412;5.436;2024-02-26T05:32:03;99754.66;;;4.62;100.00
74045;BME280;62389;51.412;5.436;2024-02-26T05:34:29;99765.84;;;4.62;100.00
74045;BME280;62389;51.412;5.436;2024-02-26T05:36:55;99771.88;;;4.63;100.00
74045;BME280;62389;51.412;5.436;2024-02-26T05:39:20;99766.69;;;4.63;100.00
74045;BME280;62389;51.412;5.436;2024-02-26T05:41:46;99778.81;;;4.62;100.00
74045;BME280;62389;51.412;5.436;2024-02-26T05:44:12;99783.94;;;4.64;100.00
74045;BME280;62389;51.412;5.436;2024-02-26T05:46:37;99782.25;;;4.63;100.00
74045;BME280;62389;51.412;5.436;2024-02-26T05:49:02;99791.75;;;4.62;100.00
74045;BME280;62389;51.412;5.436;2024-02-26T05:51:28;99793.44;;;4.63;100.00
74045;BME280;62389;51.412;5.436;2024-02-26T05:53:53;99803.81;;;4.63;100.00
74045;BME280;62389;51.412;5.436;2024-02-26T05:56:21;99804.63;;;4.64;100.00
74045;BME280;62389;51.412;5.436;2024-02-26T05:58:47;99802.00;;;4.65;100.00
74045;BME280;62389;51.412;5.436;2024-02-26T06:01:15;99812.34;;;4.65;100.00
74045;BME280;62389;51.412;5.436;2024-02-26T06:03:41;99806.31;;;4.65;100.00
74045;BME280;62389;51.412;5.436;2024-02-26T06:06:07;99802.00;;;4.65;100.00
74045;BME280;62389;51.412;5.436;2024-02-26T06:08:33;99804.56;;;4.65;100.00
74045;BME280;62389;51.412;5.436;2024-02-26T06:10:59;99807.16;;;4.65;100.00
74045;BME280;62389;51.412;5.436;2024-02-26T06:13:24;99809.81;;;4.64;100.00
74045;BME280;62389;51.412;5.436;2024-02-26T06:15:49;99812.41;;;4.64;100.00
74045;BME280;62389;51.412;5.436;2024-02-26T06:18:15;99815.00;;;4.64;100.00
74045;BME280;62389;51.412;5.436;2024-02-26T06:20:43;99822.72;;;4.65;100.00
74045;BME280;62389;51.412;5.436;2024-02-26T06:23:10;99823.56;;;4.66;100.00
74045;BME280;62389;51.412;5.436;2024-02-26T06:25:36;99820.09;;;4.67;100.00
74045;BME280;62389;51.412;5.436;2024-02-26T06:28:01;99830.47;;;4.65;100.00
74045;BME280;62389;51.412;5.436;2024-02-26T06:30:27;99822.72;;;4.65;100.00
74045;BME280;62389;51.412;5.436;2024-02-26T06:32:52;99833.06;;;4.65;100.00
74045;BME280;62389;51.412;5.436;2024-02-26T06:49:35;99843.59;;;4.61;100.00
74045;BME280;62389;51.412;5.436;2024-02-26T06:52:01;99849.69;;;4.60;100.00
74045;BME280;62389;51.412;5.436;2024-02-26T06:54:26;99851.47;;;4.58;100.00
74045;BME280;62389;51.412;5.436;2024-02-26T06:56:52;99846.31;;;4.58;100.00
74045;BME280;62389;51.412;5.436;2024-02-26T06:59:17;99854.97;;;4.57;100.00
74045;BME280;62389;51.412;5.436;2024-02-26T07:01:42;99872.22;;;4.56;100.00
74045;BME280;62389;51.412;5.436;2024-02-26T07:04:08;99865.38;;;4.55;100.00
74045;BME280;62389;51.412;5.436;2024-02-26T07:06:35;99869.72;;;4.55;100.00
74045;BME280;62389;51.412;5.436;2024-02-26T07:09:00;99873.94;;;4.57;100.00
74045;BME280;62389;51.412;5.436;2024-02-26T07:11:26;99883.47;;;4.57;100.00
74045;BME280;62389;51.412;5.436;2024-02-26T07:13:51;99885.19;;;4.56;100.00
74045;BME280;62389;51.412;5.436;2024-02-26T07:16:16;99877.47;;;4.55;100.00
74045;BME280;62389;51.412;5.436;2024-02-26T07:18:42;99895.53;;;4.56;100.00
74045;BME280;62389;51.412;5.436;2024-02-26T07:21:11;99887.06;;;4.53;100.00
74045;BME280;62389;51.412;5.436;2024-02-26T07:23:37;99897.44;;;4.51;100.00
74045;BME280;62389;51.412;5.436;2024-02-26T07:26:02;99910.38;;;4.51;100.00
74045;BME280;62389;51.412;5.436;2024-02-26T07:28:27;99907.81;;;4.51;100.00
74045;BME280;62389;51.412;5.436;2024-02-26T07:30:53;99913.81;;;4.52;100.00
74045;BME280;62389;51.412;5.436;2024-02-26T07:33:18;99922.41;;;4.54;100.00
74045;BME280;62389;51.412;5.436;2024-02-26T07:35:44;99923.25;;;4.54;100.00
74045;BME280;62389;51.412;5.436;2024-02-26T07:38:09;99924.16;;;4.53;100.00
74045;BME280;62389;51.412;5.436;2024-02-26T07:40:34;99925.84;;;4.54;100.00
74045;BME280;62389;51.412;5.436;2024-02-26T07:43:00;99936.19;;;4.54;100.00
74045;BME280;62389;51.412;5.436;2024-02-26T07:45:25;99934.44;;;4.55;100.00
74045;BME280;62389;51.412;5.436;2024-02-26T07:47:51;99937.09;;;4.53;100.00
74045;BME280;62389;51.412;5.436;2024-02-26T07:50:17;99937.03;;;4.55;100.00
74045;BME280;62389;51.412;5.436;2024-02-26T07:52:43;99934.38;;;4.56;100.00
74045;BME280;62389;51.412;5.436;2024-02-26T07:55:10;99943.06;;;4.55;100.00
74045;BME280;62389;51.412;5.436;2024-02-26T07:57:35;99947.47;;;4.53;100.00
74045;BME280;62389;51.412;5.436;2024-02-26T08:00:02;99951.88;;;4.50;100.00
74045;BME280;62389;51.412;5.436;2024-02-26T08:02:28;99955.31;;;4.50;100.00
74045;BME280;62389;51.412;5.436;2024-02-26T08:04:53;99948.38;;;4.51;100.00
74045;BME280;62389;51.412;5.436;2024-02-26T08:07:19;99952.72;;;4.50;100.00
74045;BME280;62389;51.412;5.436;2024-02-26T08:09:45;99957.06;;;4.50;100.00
74045;BME280;62389;51.412;5.436;2024-02-26T08:12:11;99957.00;;;4.51;100.00
74045;BME280;62389;51.412;5.436;2024-02-26T08:14:36;99957.06;;;4.50;100.00
74045;BME280;62389;51.412;5.436;2024-02-26T08:17:02;99962.31;;;4.48;100.00
74045;BME280;62389;51.412;5.436;2024-02-26T08:19:27;99963.97;;;4.49;100.00
74045;BME280;62389;51.412;5.436;2024-02-26T08:21:52;99971.75;;;4.49;100.00
74045;BME280;62389;51.412;5.436;2024-02-26T08:24:18;99975.25;;;4.48;100.00
74045;BME280;62389;51.412;5.436;2024-02-26T08:26:43;99983.03;;;4.48;100.00
74045;BME280;62389;51.412;5.436;2024-02-26T08:29:08;99984.69;;;4.49;100.00
74045;BME280;62389;51.412;5.436;2024-02-26T08:31:34;99976.09;;;4.49;100.00
74045;BME280;62389;51.412;5.436;2024-02-26T08:34:02;99978.75;;;4.47;100.00
74045;BME280;62389;51.412;5.436;2024-02-26T08:36:28;99987.34;;;4.48;100.00
74045;BME280;62389;51.412;5.436;2024-02-26T08:38:53;99990.78;;;4.48;100.00
74045;BME280;62389;51.412;5.436;2024-02-26T08:41:19;100000.25;;;4.49;100.00
74045;BME280;62389;51.412;5.436;2024-02-26T08:43:44;99998.56;;;4.48;100.00
74045;BME280;62389;51.412;5.436;2024-02-26T08:46:09;99996.88;;;4.47;100.00
74045;BME280;62389;51.412;5.436;2024-02-26T08:48:35;100002.91;;;4.46;100.00
74045;BME280;62389;51.412;5.436;2024-02-26T08:51:05;100007.31;;;4.44;100.00
74045;BME280;62389;51.412;5.436;2024-02-26T08:53:30;100009.91;;;4.44;100.00
74045;BME280;62389;51.412;5.436;2024-02-26T08:55:55;100011.72;;;4.40;100.00
74045;BME280;62389;51.412;5.436;2024-02-26T08:58:21;100004.81;;;4.41;100.00
74045;BME280;62389;51.412;5.436;2024-02-26T09:00:46;100018.66;;;4.40;100.00
74045;BME280;62389;51.412;5.436;2024-02-26T09:03:12;100020.34;;;4.41;100.00
74045;BME280;62389;51.412;5.436;2024-02-26T09:05:37;100025.53;;;4.41;100.00
74045;BME280;62389;51.412;5.436;2024-02-26T09:08:03;100038.38;;;4.44;100.00
74045;BME280;62389;51.412;5.436;2024-02-26T09:10:28;100026.28;;;4.45;100.00
74045;BME280;62389;51.412;5.436;2024-02-26T09:12:54;100029.78;;;4.44;100.00
74045;BME280;62389;51.412;5.436;2024-02-26T09:15:20;100034.94;;;4.44;100.00
74045;BME280;62389;51.412;5.436;2024-02-26T09:17:45;100034.13;;;4.41;100.00
74045;BME280;62389;51.412;5.436;2024-02-26T09:20:11;100035.03;;;4.40;100.00
74045;BME280;62389;51.412;5.436;2024-02-26T09:22:38;100037.63;;;4.40;100.00
74045;BME280;62389;51.412;5.436;2024-02-26T09:25:04;100048.81;;;4.41;100.00
74045;BME280;62389;51.412;5.436;2024-02-26T09:27:31;100053.13;;;4.42;100.00
74045;BME280;62389;51.412;5.436;2024-02-26T09:29:56;100060.94;;;4.40;100.00
74045;BME280;62389;51.412;5.436;2024-02-26T09:32:22;100054.06;;;4.39;100.00
74045;BME280;62389;51.412;5.436;2024-02-26T09:34:50;100068.75;;;4.39;100.00
74045;BME280;62389;51.412;5.436;2024-02-26T09:37:15;100057.53;;;4.38;100.00
74045;BME280;62389;51.412;5.436;2024-02-26T09:39:40;100060.97;;;4.39;100.00
74045;BME280;62389;51.412;5.436;2024-02-26T09:42:06;100077.31;;;4.41;100.00
74045;BME280;62389;51.412;5.436;2024-02-26T09:44:36;100076.38;;;4.44;100.00
74045;BME280;62389;51.412;5.436;2024-02-26T09:47:05;100077.28;;;4.43;100.00
74045;BME280;62389;51.412;5.436;2024-02-26T09:49:33;100080.72;;;4.43;100.00
74045;BME280;62389;51.412;5.436;2024-02-26T09:52:00;100086.72;;;4.44;100.00
74045;BME280;62389;51.412;5.436;2024-02-26T09:54:28;100091.06;;;4.43;100.00
74045;BME280;62389;51.412;5.436;2024-02-26T09:56:59;100095.34;;;4.44;100.00
74045;BME280;62389;51.412;5.436;2024-02-26T09:59:26;100096.13;;;4.46;100.00
74045;BME280;62389;51.412;5.436;2024-02-26T10:01:53;100101.31;;;4.46;100.00
74045;BME280;62389;51.412;5.436;2024-02-26T10:04:19;100103.03;;;4.47;100.00
74045;BME280;62389;51.412;5.436;2024-02-26T10:06:45;100104.81;;;4.45;100.00
74045;BME280;62389;51.412;5.436;2024-02-26T10:09:12;100109.97;;;4.45;100.00
74045;BME280;62389;51.412;5.436;2024-02-26T10:11:37;100115.16;;;4.45;100.00
74045;BME280;62389;51.412;5.436;2024-02-26T10:14:03;100116.97;;;4.43;100.00
74045;BME280;62389;51.412;5.436;2024-02-26T10:16:29;100121.28;;;4.43;100.00
74045;BME280;62389;51.412;5.436;2024-02-26T10:18:55;100129.00;;;4.44;100.00
74045;BME280;62389;51.412;5.436;2024-02-26T10:21:21;100128.09;;;4.45;100.00
74045;BME280;62389;51.412;5.436;2024-02-26T10:23:47;100138.47;;;4.45;100.00
74045;BME280;62389;51.412;5.436;2024-02-26T10:26:14;100148.78;;;4.47;100.00
74045;BME280;62389;51.412;5.436;2024-02-26T10:28:42;100147.91;;;4.48;100.00
74045;BME280;62389;51.412;5.436;2024-02-26T10:31:09;100151.34;;;4.48;100.00
74045;BME280;62389;51.412;5.436;2024-02-26T10:33:38;100142.66;;;4.49;100.00
74045;BME280;62389;51.412;5.436;2024-02-26T10:36:04;100153.09;;;4.46;100.00
74045;BME280;62389;51.412;5.436;2024-02-26T10:38:30;100155.69;;;4.46;100.00
74045;BME280;62389;51.412;5.436;2024-02-26T10:40:56;100161.78;;;4.45;100.00
74045;BME280;62389;51.412;5.436;2024-02-26T10:43:21;100177.25;;;4.47;100.00
74045;BME280;62389;51.412;5.436;2024-02-26T10:45:47;100174.66;;;4.47;100.00
74045;BME280;62389;51.412;5.436;2024-02-26T10:48:13;100168.66;;;4.46;100.00
74045;BME280;62389;51.412;5.436;2024-02-26T10:50:40;100177.31;;;4.45;100.00
74045;BME280;62389;51.412;5.436;2024-02-26T10:53:20;100182.50;;;4.45;100.00
74045;BME280;62389;51.412;5.436;2024-02-26T10:55:49;100199.81;;;4.43;100.00
74045;BME280;62389;51.412;5.436;2024-02-26T10:58:16;100202.41;;;4.43;100.00
74045;BME280;62389;51.412;5.436;2024-02-26T11:00:42;100193.81;;;4.43;100.00
74045;BME280;62389;51.412;5.436;2024-02-26T11:03:09;100197.25;;;4.41;100.00
74045;BME280;62389;51.412;5.436;2024-02-26T11:05:35;100213.75;;;4.39;100.00
74045;BME280;62389;51.412;5.436;2024-02-26T11:08:02;100209.47;;;4.38;100.00
74045;BME280;62389;51.412;5.436;2024-02-26T11:10:29;100218.03;;;4.40;100.00
74045;BME280;62389;51.412;5.436;2024-02-26T11:12:56;100217.13;;;4.41;100.00
74045;BME280;62389;51.412;5.436;2024-02-26T11:15:25;100215.44;;;4.40;100.00
74045;BME280;62389;51.412;5.436;2024-02-26T11:17:52;100215.44;;;4.40;100.00
74045;BME280;62389;51.412;5.436;2024-02-26T11:20:19;100223.19;;;4.40;100.00
74045;BME280;62389;51.412;5.436;2024-02-26T11:22:45;100221.47;;;4.40;100.00
74045;BME280;62389;51.412;5.436;2024-02-26T11:25:11;100230.97;;;4.40;100.00
74045;BME280;62389;51.412;5.436;2024-02-26T11:27:45;100222.31;;;4.41;100.00
74045;BME280;62389;51.412;5.436;2024-02-26T11:30:13;100231.78;;;4.42;100.00
74045;BME280;62389;51.412;5.436;2024-02-26T11:32:46;100226.63;;;4.40;100.00
74045;BME280;62389;51.412;5.436;2024-02-26T11:35:12;100237.00;;;4.40;100.00
74045;BME280;62389;51.412;5.436;2024-02-26T11:37:41;100240.47;;;4.39;100.00
74045;BME280;62389;51.412;5.436;2024-02-26T11:40:13;100243.06;;;4.39;100.00
74045;BME280;62389;51.412;5.436;2024-02-26T11:42:44;100250.88;;;4.38;100.00
74045;BME280;62389;51.412;5.436;2024-02-26T11:48:02;100244.88;;;4.36;100.00
74045;BME280;62389;51.412;5.436;2024-02-26T11:50:35;100250.91;;;4.36;100.00
74045;BME280;62389;51.412;5.436;2024-02-26T11:53:24;100244.81;;;4.39;100.00
74045;BME280;62389;51.412;5.436;2024-02-26T11:59:01;100254.19;;;4.43;100.00
74045;BME280;62389;51.412;5.436;2024-02-26T12:04:21;100252.34;;;4.47;100.00
74045;BME280;62389;51.412;5.436;2024-02-26T12:06:47;100261.88;;;4.46;100.00
74045;BME280;62389;51.412;5.436;2024-02-26T12:09:36;100257.53;;;4.47;100.00
74045;BME280;62389;51.412;5.436;2024-02-26T12:12:07;100264.44;;;4.48;100.00
74045;BME280;62389;51.412;5.436;2024-02-26T12:14:55;100263.47;;;4.50;100.00
74045;BME280;62389;51.412;5.436;2024-02-26T12:17:22;100279.03;;;4.50;100.00
74045;BME280;62389;51.412;5.436;2024-02-26T12:19:48;100280.72;;;4.51;100.00
74045;BME280;62389;51.412;5.436;2024-02-26T12:22:14;100273.84;;;4.50;100.00
74045;BME280;62389;51.412;5.436;2024-02-26T12:24:43;100284.19;;;4.50;100.00
74045;BME280;62389;51.412;5.436;2024-02-26T12:27:08;100280.72;;;4.51;100.00
74045;BME280;62389;51.412;5.436;2024-02-26T12:29:34;100292.78;;;4.52;100.00
74045;BME280;62389;51.412;5.436;2024-02-26T12:31:59;100288.47;;;4.53;100.00
74045;BME280;62389;51.412;5.436;2024-02-26T12:34:25;100291.00;;;4.54;100.00
74045;BME280;62389;51.412;5.436;2024-02-26T12:36:51;100297.03;;;4.55;100.00
74045;BME280;62389;51.412;5.436;2024-02-26T12:39:18;100295.34;;;4.54;100.00
74045;BME280;62389;51.412;5.436;2024-02-26T12:41:46;100309.94;;;4.56;100.00
74045;BME280;62389;51.412;5.436;2024-02-26T12:44:17;100300.44;;;4.57;100.00
74045;BME280;62389;51.412;5.436;2024-02-26T12:46:43;100311.66;;;4.57;100.00
74045;BME280;62389;51.412;5.436;2024-02-26T12:49:08;100312.50;;;4.58;100.00
74045;BME280;62389;51.412;5.436;2024-02-26T12:51:34;100316.72;;;4.60;100.00
74045;BME280;62389;51.412;5.436;2024-02-26T12:54:00;100311.53;;;4.60;100.00
74045;BME280;62389;51.412;5.436;2024-02-26T12:56:27;100326.19;;;4.61;100.00
74045;BME280;62389;51.412;5.436;2024-02-26T12:58:53;100324.47;;;4.62;100.00
74045;BME280;62389;51.412;5.436;2024-02-26T13:01:22;100327.88;;;4.64;100.00
74045;BME280;62389;51.412;5.436;2024-02-26T13:03:49;100322.72;;;4.62;100.00
74045;BME280;62389;51.412;5.436;2024-02-26T13:06:14;100326.19;;;4.61;100.00
74045;BME280;62389;51.412;5.436;2024-02-26T13:08:40;100342.63;;;4.60;100.00
74045;BME280;62389;51.412;5.436;2024-02-26T13:11:05;100343.47;;;4.61;100.00
74045;BME280;62389;51.412;5.436;2024-02-26T13:13:31;100344.44;;;4.58;100.00
74045;BME280;62389;51.412;5.436;2024-02-26T13:18:29;100357.28;;;4.61;100.00